createdAt,value
2023-01-11T00:02:29.937Z,5.87
2023-01-11T00:05:04.907Z,5.86
2023-01-11T00:07:33.593Z,5.85
2023-01-11T00:10:04.969Z,5.91
2023-01-11T00:12:33.527Z,5.95
2023-01-11T00:15:02.233Z,5.95
2023-01-11T00:17:30.915Z,5.94
2023-01-11T00:19:59.426Z,5.94
2023-01-11T00:22:29.323Z,5.97
2023-01-11T00:25:00.475Z,6.00
2023-01-11T00:27:29.045Z,5.97
2023-01-11T00:30:01.264Z,5.95
2023-01-11T00:32:32.675Z,5.92
2023-01-11T00:35:01.314Z,5.92
2023-01-11T00:37:30.144Z,5.95
2023-01-11T00:39:58.757Z,5.97
2023-01-11T00:42:48.785Z,5.97
2023-01-11T00:45:35.884Z,5.94
2023-01-11T00:48:06.200Z,5.87
2023-01-11T00:50:37.104Z,5.84
2023-01-11T00:53:06.713Z,5.77
2023-01-11T00:55:35.616Z,5.78
2023-01-11T00:58:04.858Z,5.77
2023-01-11T01:00:36.221Z,5.74
2023-01-11T01:03:04.780Z,5.74
2023-01-11T01:05:33.645Z,5.74
2023-01-11T01:08:02.414Z,5.73
2023-01-11T01:10:33.603Z,5.76
2023-01-11T01:13:20.617Z,5.74
2023-01-11T01:15:56.672Z,5.76
2023-01-11T01:18:30.512Z,5.77
2023-01-11T01:21:02.148Z,5.76
2023-01-11T01:23:30.847Z,5.76
2023-01-11T01:26:04.315Z,5.76
2023-01-11T01:28:33.502Z,5.75
2023-01-11T01:31:03.312Z,5.72
2023-01-11T01:33:34.976Z,5.68
2023-01-11T01:36:09.802Z,5.65
2023-01-11T01:38:38.401Z,5.65
2023-01-11T01:41:07.259Z,5.67
2023-01-11T01:44:07.026Z,5.72
2023-01-11T01:46:35.547Z,5.77
2023-01-11T01:49:10.022Z,5.76
2023-01-11T01:51:52.550Z,5.76
2023-01-11T01:54:25.822Z,5.77
2023-01-11T01:57:05.380Z,5.78
2023-01-11T01:59:34.381Z,5.80
2023-01-11T02:02:03.175Z,5.80
2023-01-11T02:04:42.145Z,5.75
2023-01-11T02:07:13.435Z,5.72
2023-01-11T02:09:48.895Z,5.75
2023-01-11T02:12:18.573Z,5.77
2023-01-11T02:14:49.297Z,5.77
2023-01-11T02:17:17.917Z,5.77
2023-01-11T02:20:07.797Z,5.76
2023-01-11T02:22:57.866Z,5.74
2023-01-11T02:26:14.422Z,5.72
2023-01-11T02:29:19.036Z,5.72
2023-01-11T02:32:11.260Z,5.73
2023-01-11T02:35:10.014Z,5.73
2023-01-11T02:37:47.640Z,5.73
2023-01-11T02:40:35.487Z,5.71
2023-01-11T02:43:47.003Z,5.72
2023-01-11T02:46:43.510Z,5.77
2023-01-11T02:49:47.317Z,5.78
2023-01-11T02:52:25.606Z,5.73
2023-01-11T02:55:01.050Z,5.75
2023-01-11T02:57:32.076Z,5.77
2023-01-11T03:00:02.575Z,5.81
2023-01-11T03:02:31.366Z,5.82
2023-01-11T03:04:59.992Z,5.83
2023-01-11T03:07:43.978Z,5.82
2023-01-11T03:10:30.748Z,5.81
2023-01-11T03:13:16.894Z,5.83
2023-01-11T03:16:18.687Z,5.80
2023-01-11T03:18:59.603Z,5.81
2023-01-11T03:21:57.528Z,5.81
2023-01-11T03:24:33.930Z,5.81
2023-01-11T03:27:25.725Z,5.81
2023-01-11T03:30:20.544Z,5.80
2023-01-11T03:33:11.635Z,5.78
2023-01-11T03:36:07.714Z,5.77
2023-01-11T03:39:06.053Z,5.78
2023-01-11T03:41:40.543Z,5.78
2023-01-11T03:44:13.061Z,5.81
2023-01-11T03:46:53.794Z,5.77
2023-01-11T03:49:36.803Z,5.75
2023-01-11T03:52:09.942Z,5.74
2023-01-11T03:54:40.677Z,5.68
2023-01-11T03:57:23.800Z,5.65
2023-01-11T03:59:52.418Z,5.62
2023-01-11T04:02:25.478Z,5.59
2023-01-11T04:04:54.153Z,5.59
2023-01-11T04:07:27.364Z,5.61
2023-01-11T04:09:59.012Z,5.62
2023-01-11T04:12:27.673Z,5.63
2023-01-11T04:14:56.262Z,5.61
2023-01-11T04:17:24.852Z,5.56
2023-01-11T04:19:53.479Z,5.53
2023-01-11T04:22:24.894Z,5.55
2023-01-11T04:24:53.395Z,5.59
2023-01-11T04:27:22.585Z,5.60
2023-01-11T04:29:51.146Z,5.53
2023-01-11T04:32:23.612Z,5.48
2023-01-11T04:34:52.190Z,5.50
2023-01-11T04:37:23.787Z,5.51
2023-01-11T04:39:55.532Z,5.45
2023-01-11T04:42:26.387Z,5.38
2023-01-11T04:44:54.969Z,5.35
2023-01-11T04:47:25.399Z,5.37
2023-01-11T04:49:56.661Z,5.38
2023-01-11T04:52:25.220Z,5.43
2023-01-11T04:54:54.219Z,5.49
2023-01-11T04:57:27.318Z,5.54
2023-01-11T04:59:59.019Z,5.58
2023-01-11T05:02:28.271Z,5.61
2023-01-11T05:04:56.840Z,5.58
2023-01-11T05:07:26.713Z,5.52
2023-01-11T05:09:55.331Z,5.46
2023-01-11T05:12:27.142Z,5.40
2023-01-11T05:14:59.360Z,5.35
2023-01-11T05:17:27.944Z,5.32
2023-01-11T05:20:00.101Z,5.32
2023-01-11T05:22:28.765Z,5.33
2023-01-11T05:24:57.277Z,5.34
2023-01-11T05:27:26.022Z,5.31
2023-01-11T05:29:54.523Z,5.22
2023-01-11T05:32:26.620Z,5.11
2023-01-11T05:34:55.272Z,5.03
2023-01-11T05:37:24.350Z,4.97
2023-01-11T05:39:55.498Z,4.92
2023-01-11T05:42:24.077Z,4.91
2023-01-11T05:45:11.256Z,4.84
2023-01-11T05:47:40.541Z,4.76
2023-01-11T05:50:10.191Z,4.73
2023-01-11T05:52:38.742Z,4.72
2023-01-11T05:55:08.580Z,4.79
2023-01-11T05:57:40.916Z,4.91
2023-01-11T06:00:10.686Z,4.99
2023-01-11T06:02:39.922Z,5.04
2023-01-11T06:05:09.148Z,5.09
2023-01-11T06:07:37.817Z,5.11
2023-01-11T06:10:07.898Z,5.13
2023-01-11T06:12:39.556Z,5.18
2023-01-11T06:15:08.749Z,5.22
2023-01-11T06:17:37.512Z,5.25
2023-01-11T06:20:07.075Z,5.28
2023-01-11T06:22:35.876Z,5.32
2023-01-11T06:25:07.381Z,5.35
2023-01-11T06:27:36.120Z,5.35
2023-01-11T06:30:05.062Z,5.34
2023-01-11T06:32:34.914Z,5.37
2023-01-11T06:35:03.678Z,5.38
2023-01-11T06:37:33.500Z,5.35
2023-01-11T06:40:02.174Z,5.35
2023-01-11T06:42:30.778Z,5.37
2023-01-11T06:44:59.350Z,5.33
2023-01-11T06:47:28.073Z,5.27
2023-01-11T06:49:56.673Z,5.22
2023-01-11T06:52:26.166Z,5.20
2023-01-11T06:54:54.728Z,5.17
2023-01-11T06:57:25.660Z,5.09
2023-01-11T06:59:54.792Z,5.03
2023-01-11T07:02:23.537Z,4.99
2023-01-11T07:04:52.289Z,4.93
2023-01-11T07:07:21.041Z,4.89
2023-01-11T07:09:49.660Z,4.91
2023-01-11T07:12:18.355Z,4.91
2023-01-11T07:14:46.975Z,4.82
2023-01-11T07:17:16.281Z,4.74
2023-01-11T07:19:44.819Z,4.70
2023-01-11T07:22:16.557Z,4.71
2023-01-11T07:24:46.972Z,4.75
2023-01-11T07:27:17.036Z,4.84
2023-01-11T07:29:50.369Z,4.94
2023-01-11T07:32:19.015Z,5.01
2023-01-11T07:34:51.523Z,5.09
2023-01-11T07:37:28.189Z,5.21
2023-01-11T07:40:00.287Z,5.36
2023-01-11T07:42:47.615Z,5.49
2023-01-11T07:45:19.019Z,5.51
2023-01-11T07:47:51.662Z,5.53
2023-01-11T07:50:20.284Z,5.56
2023-01-11T07:52:49.841Z,5.62
2023-01-11T07:55:22.858Z,5.62
2023-01-11T07:57:51.421Z,5.65
2023-01-11T08:00:21.886Z,5.66
2023-01-11T08:02:52.731Z,5.70
2023-01-11T08:05:21.993Z,5.74
2023-01-11T08:07:53.824Z,5.74
2023-01-11T08:10:25.638Z,5.70
2023-01-11T08:13:13.125Z,5.67
2023-01-11T08:15:45.083Z,5.65
2023-01-11T08:18:18.146Z,5.65
2023-01-11T08:20:47.980Z,5.65
2023-01-11T08:23:16.695Z,5.63
2023-01-11T08:25:45.840Z,5.62
2023-01-11T08:28:14.530Z,5.64
2023-01-11T08:30:44.486Z,5.64
2023-01-11T08:33:13.110Z,5.69
2023-01-11T08:35:42.078Z,5.77
2023-01-11T08:38:10.880Z,5.83
2023-01-11T08:40:40.805Z,5.86
2023-01-11T08:43:09.524Z,5.96
2023-01-11T08:45:38.613Z,6.06
2023-01-11T08:48:07.480Z,6.07
2023-01-11T08:50:36.011Z,6.07
2023-01-11T08:53:04.512Z,6.13
2023-01-11T08:55:33.332Z,6.14
2023-01-11T08:58:03.154Z,6.18
2023-01-11T09:00:31.552Z,6.28
2023-01-11T09:03:03.009Z,6.36
2023-01-11T09:05:32.464Z,6.39
2023-01-11T09:08:02.217Z,6.37
2023-01-11T09:10:34.639Z,6.32
2023-01-11T09:13:05.688Z,6.28
2023-01-11T09:15:35.575Z,6.34
2023-01-11T09:18:08.464Z,6.43
2023-01-11T09:20:38.084Z,6.50
2023-01-11T09:23:07.136Z,6.52
2023-01-11T09:25:37.171Z,6.46
2023-01-11T09:28:05.584Z,6.48
2023-01-11T09:30:34.047Z,6.55
2023-01-11T09:33:05.104Z,6.65
2023-01-11T09:35:35.299Z,6.73
2023-01-11T09:38:03.713Z,6.77
2023-01-11T09:41:01.536Z,6.76
2023-01-11T09:43:31.390Z,6.68
2023-01-11T09:46:08.150Z,6.60
2023-01-11T09:48:48.132Z,6.59
2023-01-11T09:51:19.337Z,6.62
2023-01-11T09:53:54.050Z,6.61
2023-01-11T09:56:28.743Z,6.53
2023-01-11T09:59:20.413Z,6.57
2023-01-11T10:02:23.582Z,6.60
2023-01-11T10:05:19.799Z,6.64
2023-01-11T10:18:29.449Z,7.03
2023-01-11T10:18:41.723Z,6.87
2023-01-11T10:21:16.725Z,7.18
2023-01-11T10:23:54.430Z,7.29
2023-01-11T10:26:30.004Z,7.47
2023-01-11T10:29:16.194Z,7.70
2023-01-11T10:32:26.058Z,7.84
2023-01-11T10:35:14.599Z,7.88
2023-01-11T10:38:05.241Z,7.95
2023-01-11T10:41:07.539Z,8.06
2023-01-11T10:43:41.865Z,8.15
2023-01-11T10:46:27.752Z,8.23
2023-01-11T10:49:26.638Z,8.24
2023-01-11T10:52:04.116Z,8.20
2023-01-11T10:54:37.401Z,8.19
2023-01-11T10:57:31.851Z,8.22
2023-01-11T11:00:19.888Z,8.24
2023-01-11T11:03:04.664Z,8.23
2023-01-11T11:06:08.363Z,8.23
2023-01-11T11:09:18.578Z,8.19
2023-01-11T11:12:33.460Z,8.17
2023-01-11T11:15:15.687Z,8.21
2023-01-11T11:17:50.592Z,8.25
2023-01-11T11:20:25.219Z,8.27
2023-01-11T11:22:55.145Z,8.30
2023-01-11T11:25:38.453Z,8.32
2023-01-11T11:28:32.515Z,8.33
2023-01-11T11:31:05.603Z,8.39
2023-01-11T11:33:37.211Z,8.47
2023-01-11T11:36:09.031Z,8.53
2023-01-11T11:38:39.972Z,8.56
2023-01-11T11:41:20.054Z,8.49
2023-01-11T11:43:48.632Z,8.44
2023-01-11T11:46:20.593Z,8.52
2023-01-11T11:49:17.516Z,8.63
2023-01-11T11:51:48.035Z,8.72
2023-01-11T11:54:27.484Z,8.83
2023-01-11T11:56:59.086Z,8.96
2023-01-11T11:59:33.312Z,9.05
2023-01-11T12:02:05.369Z,9.12
2023-01-11T12:04:55.022Z,9.21
2023-01-11T12:07:27.427Z,9.25
2023-01-11T12:10:01.166Z,9.28
2023-01-11T12:12:33.275Z,9.28
2023-01-11T12:15:16.300Z,9.28
2023-01-11T12:17:44.716Z,9.27
2023-01-11T12:20:22.436Z,9.23
2023-01-11T12:23:10.156Z,9.24
2023-01-11T12:26:21.887Z,9.22
2023-01-11T12:28:57.054Z,9.16
2023-01-11T12:31:34.599Z,9.09
2023-01-11T12:34:06.221Z,9.08
2023-01-11T12:36:44.467Z,9.10
2023-01-11T12:39:51.495Z,9.11
2023-01-11T12:42:44.457Z,9.13
2023-01-11T12:45:32.167Z,9.11
2023-01-11T12:48:37.432Z,9.10
2023-01-11T12:51:35.704Z,9.10
2023-01-11T12:54:25.671Z,9.09
2023-01-11T12:57:30.081Z,9.09
2023-01-11T13:00:43.458Z,9.09
2023-01-11T13:03:11.880Z,9.10
2023-01-11T13:06:00.874Z,9.13
2023-01-11T13:08:58.056Z,9.16
2023-01-11T13:11:49.103Z,9.18
2023-01-11T13:14:42.237Z,9.21
2023-01-11T13:17:10.550Z,9.22
2023-01-11T13:20:01.379Z,9.20
2023-01-11T13:22:35.791Z,9.19
2023-01-11T13:25:19.219Z,9.17
2023-01-11T13:27:49.936Z,9.16
2023-01-11T13:30:20.339Z,9.14
2023-01-11T13:32:58.652Z,9.13
2023-01-11T13:35:57.035Z,9.15
2023-01-11T13:38:49.917Z,9.15
2023-01-11T13:41:24.100Z,9.14
2023-01-11T13:44:10.791Z,9.13
2023-01-11T13:46:49.647Z,9.10
2023-01-11T13:49:30.213Z,9.08
2023-01-11T13:52:00.396Z,9.07
2023-01-11T13:54:38.323Z,9.07
2023-01-11T13:57:30.460Z,9.09
2023-01-11T14:00:10.073Z,9.14
2023-01-11T14:02:46.354Z,9.12
2023-01-11T14:05:19.082Z,9.13
2023-01-11T14:08:18.136Z,9.16
2023-01-11T14:11:10.948Z,9.21
2023-01-11T14:14:15.464Z,9.26
2023-01-11T14:16:59.768Z,9.30
2023-01-11T14:19:53.394Z,9.34
2023-01-11T14:22:59.054Z,9.36
2023-01-11T14:26:02.146Z,9.35
2023-01-11T14:28:52.117Z,9.28
2023-01-11T14:31:41.881Z,9.24
2023-01-11T14:34:26.460Z,9.18
2023-01-11T14:37:11.275Z,9.06
2023-01-11T14:40:01.911Z,8.93
2023-01-11T14:42:39.651Z,8.80
2023-01-11T14:45:20.710Z,8.67
2023-01-11T14:48:04.828Z,8.55
2023-01-11T14:50:58.867Z,8.43
2023-01-11T14:53:36.593Z,8.31
2023-01-11T14:56:05.500Z,8.19
2023-01-11T14:58:34.321Z,8.09
2023-01-11T15:01:10.165Z,8.02
2023-01-11T15:03:45.862Z,7.97
2023-01-11T15:06:17.253Z,7.93
2023-01-11T15:08:52.752Z,7.87
2023-01-11T15:11:33.241Z,7.80
2023-01-11T15:14:24.130Z,7.73
2023-01-11T15:17:13.877Z,7.65
2023-01-11T15:19:44.523Z,7.58
2023-01-11T15:22:31.230Z,7.51
2023-01-11T15:25:07.169Z,7.45
2023-01-11T15:27:40.126Z,7.41
2023-01-11T15:30:32.198Z,7.36
2023-01-11T15:33:19.383Z,7.28
2023-01-11T15:35:57.242Z,7.20
2023-01-11T15:38:49.451Z,7.12
2023-01-11T15:42:05.071Z,7.04
2023-01-11T15:44:36.683Z,6.97
2023-01-11T15:47:16.650Z,6.95
2023-01-11T15:50:17.129Z,6.95
2023-01-11T15:53:04.685Z,6.94
2023-01-11T15:56:06.293Z,6.91
2023-01-11T15:58:56.124Z,6.87
2023-01-11T16:01:29.761Z,6.84
2023-01-11T16:04:32.403Z,6.78
2023-01-11T16:07:40.678Z,6.73
2023-01-11T16:10:31.482Z,6.67
2023-01-11T16:13:30.046Z,6.58
2023-01-11T16:16:19.329Z,6.49
2023-01-11T16:18:58.268Z,6.43
2023-01-11T16:21:36.591Z,6.36
2023-01-11T16:27:34.229Z,6.23
2023-01-11T16:30:03.541Z,6.15
2023-01-11T16:32:36.038Z,6.11
2023-01-11T16:35:18.658Z,6.07
2023-01-11T16:38:01.537Z,6.02
2023-01-11T16:40:38.159Z,5.95
2023-01-11T16:43:19.285Z,5.91
2023-01-11T16:45:54.452Z,5.90
2023-01-11T16:48:28.663Z,5.88
2023-01-11T16:51:06.021Z,5.85
2023-01-11T16:53:42.138Z,5.79
2023-01-11T16:56:18.906Z,5.73
2023-01-11T16:59:15.667Z,5.68
2023-01-11T17:02:04.037Z,5.63
2023-01-11T17:04:49.496Z,5.57
2023-01-11T17:07:25.533Z,5.53
2023-01-11T17:09:54.358Z,5.51
2023-01-11T17:12:27.789Z,5.46
2023-01-11T17:15:30.380Z,5.38
2023-01-11T17:18:05.084Z,5.29
2023-01-11T17:20:35.245Z,5.25
2023-01-11T17:23:06.518Z,5.21
2023-01-11T17:25:44.649Z,5.16
2023-01-11T17:28:20.115Z,5.09
2023-01-11T17:30:53.120Z,5.00
2023-01-11T17:33:28.512Z,4.97
2023-01-11T17:35:59.164Z,4.98
2023-01-11T17:38:28.598Z,5.00
2023-01-11T17:41:03.006Z,5.01
2023-01-11T17:43:50.555Z,4.98
2023-01-11T17:46:23.951Z,4.93
2023-01-11T17:48:56.280Z,4.87
2023-01-11T17:51:34.244Z,4.85
2023-01-11T17:54:03.025Z,4.85
2023-01-11T17:56:38.180Z,4.86
2023-01-11T17:59:18.940Z,4.84
2023-01-11T18:01:49.537Z,4.81
2023-01-11T18:04:21.745Z,4.76
2023-01-11T18:06:54.293Z,4.73
2023-01-11T18:09:36.521Z,4.71
2023-01-11T18:12:32.894Z,4.68
2023-01-11T18:15:04.906Z,4.61
2023-01-11T18:17:39.199Z,4.57
2023-01-11T18:20:10.948Z,4.54
2023-01-11T18:22:59.206Z,4.51
2023-01-11T18:25:30.675Z,4.50
2023-01-11T18:28:22.311Z,4.51
2023-01-11T18:31:02.182Z,4.48
2023-01-11T18:33:34.913Z,4.44
2023-01-11T18:36:04.875Z,4.40
2023-01-11T18:38:36.548Z,4.37
2023-01-11T18:41:28.501Z,4.38
2023-01-11T18:44:01.322Z,4.33
2023-01-11T18:46:30.480Z,4.24
2023-01-11T18:49:00.117Z,4.16
2023-01-11T18:51:34.426Z,4.09
2023-01-11T18:54:05.847Z,4.05
2023-01-11T18:56:34.955Z,4.01
2023-01-11T18:59:03.720Z,3.97
2023-01-11T19:01:37.630Z,3.93
2023-01-11T19:04:12.496Z,3.88
2023-01-11T19:07:01.388Z,3.83
2023-01-11T19:09:32.617Z,3.80
2023-01-11T19:12:02.244Z,3.79
2023-01-11T19:18:16.371Z,3.85
2023-01-11T19:20:43.939Z,3.80
2023-01-11T19:23:12.851Z,3.76
2023-01-11T19:25:41.166Z,3.76
2023-01-11T19:28:09.105Z,3.81
2023-01-11T19:30:38.819Z,3.81
2023-01-11T19:33:06.170Z,3.75
2023-01-11T19:35:33.762Z,3.67
2023-01-11T19:38:01.405Z,3.61
2023-01-11T19:40:28.856Z,3.57
2023-01-11T19:42:57.745Z,3.57
2023-01-11T19:45:24.955Z,3.60
2023-01-11T19:47:52.256Z,3.59
2023-01-11T19:50:19.949Z,3.57
2023-01-11T19:52:50.196Z,3.55
2023-01-11T19:55:17.515Z,3.56
2023-01-11T19:57:47.109Z,3.62
2023-01-11T20:00:14.796Z,3.68
2023-01-11T20:02:42.191Z,3.73
2023-01-11T20:05:09.539Z,3.75
2023-01-11T20:07:36.694Z,3.74
2023-01-11T20:10:04.281Z,3.77
2023-01-11T20:12:31.736Z,3.79
2023-01-11T20:15:00.864Z,3.82
2023-01-11T20:17:32.639Z,3.83
2023-01-11T20:20:00.288Z,3.83
2023-01-11T20:22:29.023Z,3.82
2023-01-11T20:25:00.098Z,3.87
2023-01-11T20:27:33.681Z,3.91
2023-01-11T20:30:01.741Z,3.89
2023-01-11T20:32:40.831Z,3.87
2023-01-11T20:35:09.996Z,3.80
2023-01-11T20:37:37.533Z,3.76
2023-01-11T20:40:07.460Z,3.69
2023-01-11T20:42:34.903Z,3.69
2023-01-11T20:45:02.163Z,3.68
2023-01-11T20:47:29.340Z,3.66
2023-01-11T20:49:56.468Z,3.62
2023-01-11T20:52:23.628Z,3.57
2023-01-11T20:54:50.982Z,3.52
2023-01-11T20:57:18.235Z,3.48
2023-01-11T20:59:45.260Z,3.47
2023-01-11T21:02:13.065Z,3.44
2023-01-11T21:04:40.196Z,3.41
2023-01-11T21:07:07.331Z,3.39
2023-01-11T21:09:34.385Z,3.38
2023-01-11T21:12:02.499Z,3.38
2023-01-11T21:14:30.748Z,3.37
2023-01-11T21:16:57.965Z,3.34
2023-01-11T21:19:25.815Z,3.27
2023-01-11T21:21:53.471Z,3.22
2023-01-11T21:24:21.733Z,3.19
2023-01-11T21:26:48.774Z,3.19
2023-01-11T21:29:15.950Z,3.20
2023-01-11T21:31:43.189Z,3.21
2023-01-11T21:34:12.037Z,3.18
2023-01-11T21:36:39.919Z,3.13
2023-01-11T21:39:07.800Z,3.07
2023-01-11T21:41:53.291Z,3.03
2023-01-11T21:44:22.932Z,3.05
2023-01-11T21:46:50.988Z,3.06
2023-01-11T21:49:22.088Z,3.03
2023-01-11T21:55:18.065Z,2.94
2023-01-11T21:57:46.703Z,2.90
2023-01-11T22:00:17.222Z,2.87
2023-01-11T22:02:51.958Z,2.79
2023-01-11T22:05:24.005Z,2.72
2023-01-11T22:07:56.448Z,2.64
2023-01-11T22:10:30.201Z,2.59
2023-01-11T22:12:59.538Z,2.56
2023-01-11T22:15:33.639Z,2.56
2023-01-11T22:18:02.285Z,2.55
2023-01-11T22:20:31.725Z,2.54
2023-01-11T22:23:01.163Z,2.53
2023-01-11T22:25:32.488Z,2.52
2023-01-11T22:28:04.124Z,2.53
2023-01-11T22:30:36.201Z,2.54
2023-01-11T22:33:10.430Z,2.55
2023-01-11T22:35:38.993Z,2.55
2023-01-11T22:38:07.491Z,2.51
2023-01-11T22:40:36.444Z,2.49
2023-01-11T22:43:05.045Z,2.49
2023-01-11T22:45:33.651Z,2.50
2023-01-11T22:48:07.392Z,2.53
2023-01-11T22:50:43.955Z,2.51
2023-01-11T22:53:14.969Z,2.48
2023-01-11T22:55:43.856Z,2.46
2023-01-11T22:58:12.861Z,2.45
2023-01-11T23:00:43.778Z,2.44
2023-01-11T23:03:15.850Z,2.44
2023-01-11T23:05:46.528Z,2.41
2023-01-11T23:08:16.635Z,2.36
2023-01-11T23:10:45.355Z,2.28
2023-01-11T23:13:32.628Z,2.20
2023-01-11T23:16:01.288Z,2.13
2023-01-11T23:18:32.493Z,2.08
2023-01-11T23:21:05.522Z,2.03
2023-01-11T23:23:34.215Z,2.02
2023-01-11T23:26:02.758Z,1.99
2023-01-11T23:28:33.206Z,1.91
2023-01-11T23:31:12.319Z,1.83
2023-01-11T23:33:43.461Z,1.76
2023-01-11T23:36:12.408Z,1.73
2023-01-11T23:38:44.123Z,1.72
2023-01-11T23:41:36.911Z,1.73
2023-01-11T23:44:09.395Z,1.74
2023-01-11T23:47:00.949Z,1.75
2023-01-11T23:49:33.461Z,1.76
2023-01-11T23:52:02.581Z,1.82
2023-01-11T23:54:33.971Z,1.87
2023-01-11T23:57:04.491Z,1.91
2023-01-11T23:59:36.146Z,1.94
